sensor_id;sensor_type;location;lat;lon;timestamp;pressure;altitude;pressure_sealevel;temperature;humidity
21817;BME280;13247;47.504;7.382;2023-04-03T00:00:11;97800.97;;;7.00;100.00
21817;BME280;13247;47.504;7.382;2023-04-03T00:02:56;97808.06;;;6.83;100.00
21817;BME280;13247;47.504;7.382;2023-04-03T00:05:41;97802.78;;;6.92;100.00
21817;BME280;13247;47.504;7.382;2023-04-03T00:08:26;97795.94;;;6.81;100.00
21817;BME280;13247;47.504;7.382;2023-04-03T00:11:11;97794.88;;;6.97;100.00
21817;BME280;13247;47.504;7.382;2023-04-03T00:13:56;97796.59;;;7.02;100.00
21817;BME280;13247;47.504;7.382;2023-04-03T00:16:40;97806.63;;;6.49;100.00
21817;BME280;13247;47.504;7.382;2023-04-03T00:19:25;97803.88;;;6.69;100.00
21817;BME280;13247;47.504;7.382;2023-04-03T00:22:09;97805.66;;;6.59;100.00
21817;BME280;13247;47.504;7.382;2023-04-03T00:24:54;97811.19;;;6.23;100.00
21817;BME280;13247;47.504;7.382;2023-04-03T00:27:40;97810.03;;;6.60;100.00
21817;BME280;13247;47.504;7.382;2023-04-03T00:30:25;97808.25;;;6.62;100.00
21817;BME280;13247;47.504;7.382;2023-04-03T00:33:12;97811.91;;;6.40;100.00
21817;BME280;13247;47.504;7.382;2023-04-03T00:35:58;97813.44;;;6.64;100.00
21817;BME280;13247;47.504;7.382;2023-04-03T00:38:43;97815.59;;;6.12;100.00
21817;BME280;13247;47.504;7.382;2023-04-03T00:41:27;97802.22;;;6.59;100.00
21817;BME280;13247;47.504;7.382;2023-04-03T00:47:17;97815.16;;;6.68;100.00
21817;BME280;13247;47.504;7.382;2023-04-03T00:50:03;97808.38;;;6.50;100.00
21817;BME280;13247;47.504;7.382;2023-04-03T00:52:48;97814.44;;;6.49;100.00
21817;BME280;13247;47.504;7.382;2023-04-03T00:55:34;97822.50;;;6.16;100.00
21817;BME280;13247;47.504;7.382;2023-04-03T00:58:22;97820.88;;;5.94;100.00
21817;BME280;13247;47.504;7.382;2023-04-03T01:01:12;97820.94;;;5.85;100.00
21817;BME280;13247;47.504;7.382;2023-04-03T01:04:01;97828.81;;;5.62;100.00
21817;BME280;13247;47.504;7.382;2023-04-03T01:06:47;97818.31;;;5.91;100.00
21817;BME280;13247;47.504;7.382;2023-04-03T01:09:32;97824.34;;;5.94;100.00
21817;BME280;13247;47.504;7.382;2023-04-03T01:12:30;97821.59;;;6.23;100.00
21817;BME280;13247;47.504;7.382;2023-04-03T01:15:26;97823.47;;;6.01;100.00
21817;BME280;13247;47.504;7.382;2023-04-03T01:18:14;97817.13;;;6.39;100.00
21817;BME280;13247;47.504;7.382;2023-04-03T01:21:14;97821.69;;;6.08;100.00
21817;BME280;13247;47.504;7.382;2023-04-03T01:27:10;97824.41;;;5.79;100.00
21817;BME280;13247;47.504;7.382;2023-04-03T01:29:56;97834.81;;;5.87;100.00
21817;BME280;13247;47.504;7.382;2023-04-03T01:32:41;97823.63;;;5.64;100.00
21817;BME280;13247;47.504;7.382;2023-04-03T01:35:26;97844.47;;;5.48;100.00
21817;BME280;13247;47.504;7.382;2023-04-03T01:38:11;97830.47;;;5.83;100.00
21817;BME280;13247;47.504;7.382;2023-04-03T01:40:56;97826.16;;;5.85;100.00
21817;BME280;13247;47.504;7.382;2023-04-03T01:43:40;97826.13;;;5.88;100.00
21817;BME280;13247;47.504;7.382;2023-04-03T01:46:25;97830.59;;;5.49;100.00
21817;BME280;13247;47.504;7.382;2023-04-03T01:49:10;97829.75;;;5.44;100.00
21817;BME280;13247;47.504;7.382;2023-04-03T01:51:55;97829.84;;;5.13;100.00
21817;BME280;13247;47.504;7.382;2023-04-03T01:54:39;97824.53;;;5.49;100.00
21817;BME280;13247;47.504;7.382;2023-04-03T01:57:24;97835.81;;;5.39;100.00
21817;BME280;13247;47.504;7.382;2023-04-03T02:00:09;97830.56;;;5.58;100.00
21817;BME280;13247;47.504;7.382;2023-04-03T02:02:54;97825.44;;;5.36;100.00
21817;BME280;13247;47.504;7.382;2023-04-03T02:05:40;97836.66;;;5.51;100.00
21817;BME280;13247;47.504;7.382;2023-04-03T02:08:25;97830.59;;;5.43;100.00
21817;BME280;13247;47.504;7.382;2023-04-03T02:11:09;97831.47;;;5.48;100.00
21817;BME280;13247;47.504;7.382;2023-04-03T02:13:54;97830.53;;;5.69;100.00
21817;BME280;13247;47.504;7.382;2023-04-03T02:16:39;97829.56;;;5.94;100.00
21817;BME280;13247;47.504;7.382;2023-04-03T02:19:24;97831.47;;;5.44;100.00
21817;BME280;13247;47.504;7.382;2023-04-03T02:22:09;97829.81;;;5.16;100.00
21817;BME280;13247;47.504;7.382;2023-04-03T02:24:53;97832.38;;;5.38;100.00
21817;BME280;13247;47.504;7.382;2023-04-03T02:27:39;97829.75;;;5.41;100.00
21817;BME280;13247;47.504;7.382;2023-04-03T02:30:24;97828.72;;;5.79;100.00
21817;BME280;13247;47.504;7.382;2023-04-03T02:33:09;97828.78;;;5.71;100.00
21817;BME280;13247;47.504;7.382;2023-04-03T02:35:55;97830.59;;;5.52;100.00
21817;BME280;13247;47.504;7.382;2023-04-03T02:38:40;97835.91;;;5.19;100.00
21817;BME280;13247;47.504;7.382;2023-04-03T02:41:24;97842.03;;;4.79;100.00
21817;BME280;13247;47.504;7.382;2023-04-03T02:44:12;97834.19;;;5.00;100.00
21817;BME280;13247;47.504;7.382;2023-04-03T02:46:57;97831.53;;;5.32;100.00
21817;BME280;13247;47.504;7.382;2023-04-03T02:49:41;97826.25;;;5.53;100.00
21817;BME280;13247;47.504;7.382;2023-04-03T02:52:29;97828.06;;;5.22;100.00
21817;BME280;13247;47.504;7.382;2023-04-03T02:55:14;97822.91;;;5.06;100.00
21817;BME280;13247;47.504;7.382;2023-04-03T02:58:00;97830.63;;;5.34;100.00
21817;BME280;13247;47.504;7.382;2023-04-03T03:00:44;97841.94;;;5.29;100.00
21817;BME280;13247;47.504;7.382;2023-04-03T03:03:29;97829.81;;;5.19;100.00
21817;BME280;13247;47.504;7.382;2023-04-03T03:06:16;97833.31;;;5.10;100.00
21817;BME280;13247;47.504;7.382;2023-04-03T03:09:01;97834.22;;;4.91;100.00
21817;BME280;13247;47.504;7.382;2023-04-03T03:11:46;97828.91;;;5.30;100.00
21817;BME280;13247;47.504;7.382;2023-04-03T03:14:30;97831.47;;;5.44;100.00
21817;BME280;13247;47.504;7.382;2023-04-03T03:17:15;97825.41;;;5.46;100.00
21817;BME280;13247;47.504;7.382;2023-04-03T03:20:00;97832.34;;;5.43;100.00
21817;BME280;13247;47.504;7.382;2023-04-03T03:22:45;97827.19;;;5.38;100.00
21817;BME280;13247;47.504;7.382;2023-04-03T03:25:29;97836.69;;;5.41;100.00
21817;BME280;13247;47.504;7.382;2023-04-03T03:28:14;97829.81;;;5.22;100.00
21817;BME280;13247;47.504;7.382;2023-04-03T03:30:59;97834.22;;;4.96;100.00
21817;BME280;13247;47.504;7.382;2023-04-03T03:33:44;97835.00;;;5.22;100.00
21817;BME280;13247;47.504;7.382;2023-04-03T03:36:29;97822.88;;;5.13;100.00
21817;BME280;13247;47.504;7.382;2023-04-03T03:39:15;97830.69;;;5.07;100.00
21817;BME280;13247;47.504;7.382;2023-04-03T03:42:00;97842.03;;;4.84;100.00
21817;BME280;13247;47.504;7.382;2023-04-03T03:44:45;97829.84;;;5.17;100.00
21817;BME280;13247;47.504;7.382;2023-04-03T03:47:29;97835.84;;;5.31;100.00
21817;BME280;13247;47.504;7.382;2023-04-03T03:50:14;97836.78;;;5.15;100.00
21817;BME280;13247;47.504;7.382;2023-04-03T03:52:59;97837.59;;;5.26;100.00
21817;BME280;13247;47.504;7.382;2023-04-03T03:55:43;97843.72;;;5.00;100.00
21817;BME280;13247;47.504;7.382;2023-04-03T03:58:28;97849.81;;;4.94;100.00
21817;BME280;13247;47.504;7.382;2023-04-03T04:01:12;97841.97;;;5.17;100.00
21817;BME280;13247;47.504;7.382;2023-04-03T04:03:58;97848.06;;;4.46;100.00
21817;BME280;13247;47.504;7.382;2023-04-03T04:06:42;97839.41;;;4.94;100.00
21817;BME280;13247;47.504;7.382;2023-04-03T04:09:27;97834.16;;;5.23;100.00
21817;BME280;13247;47.504;7.382;2023-04-03T04:12:12;97833.31;;;5.19;100.00
21817;BME280;13247;47.504;7.382;2023-04-03T04:14:56;97844.47;;;5.48;100.00
21817;BME280;13247;47.504;7.382;2023-04-03T04:17:41;97846.22;;;5.46;100.00
21817;BME280;13247;47.504;7.382;2023-04-03T04:20:25;97847.09;;;5.39;100.00
21817;BME280;13247;47.504;7.382;2023-04-03T04:23:10;97864.50;;;5.00;100.00
21817;BME280;13247;47.504;7.382;2023-04-03T04:25:54;97850.56;;;5.35;100.00
21817;BME280;13247;47.504;7.382;2023-04-03T04:28:39;97846.34;;;4.74;100.00
21817;BME280;13247;47.504;7.382;2023-04-03T04:31:24;97855.00;;;4.90;100.00
21817;BME280;13247;47.504;7.382;2023-04-03T04:34:09;97862.78;;;4.43;100.00
21817;BME280;13247;47.504;7.382;2023-04-03T04:36:53;97842.00;;;4.85;100.00
21817;BME280;13247;47.504;7.382;2023-04-03T04:39:39;97841.09;;;5.13;100.00
21817;BME280;13247;47.504;7.382;2023-04-03T04:42:23;97847.16;;;5.09;100.00
21817;BME280;13247;47.504;7.382;2023-04-03T04:45:08;97841.06;;;5.22;100.00
21817;BME280;13247;47.504;7.382;2023-04-03T04:47:55;97864.50;;;4.75;100.00
21817;BME280;13247;47.504;7.382;2023-04-03T04:50:40;97858.47;;;4.72;100.00
21817;BME280;13247;47.504;7.382;2023-04-03T04:53:25;97852.38;;;4.77;100.00
21817;BME280;13247;47.504;7.382;2023-04-03T04:56:09;97851.53;;;5.00;100.00
21817;BME280;13247;47.504;7.382;2023-04-03T04:58:54;97857.59;;;4.61;100.00
21817;BME280;13247;47.504;7.382;2023-04-03T05:01:39;97856.72;;;4.78;100.00
21817;BME280;13247;47.504;7.382;2023-04-03T05:04:24;97863.66;;;4.81;100.00
21817;BME280;13247;47.504;7.382;2023-04-03T05:07:09;97870.56;;;4.61;100.00
21817;BME280;13247;47.504;7.382;2023-04-03T05:09:53;97864.50;;;4.82;100.00
21817;BME280;13247;47.504;7.382;2023-04-03T05:12:38;97857.59;;;4.74;100.00
21817;BME280;13247;47.504;7.382;2023-04-03T05:15:23;97865.38;;;4.49;100.00
21817;BME280;13247;47.504;7.382;2023-04-03T05:18:08;97874.03;;;4.63;100.00
21817;BME280;13247;47.504;7.382;2023-04-03T05:20:52;97873.16;;;4.56;100.00
21817;BME280;13247;47.504;7.382;2023-04-03T05:23:37;97863.69;;;4.75;100.00
21817;BME280;13247;47.504;7.382;2023-04-03T05:26:22;97868.84;;;4.46;100.00
21817;BME280;13247;47.504;7.382;2023-04-03T05:29:06;97869.66;;;4.29;100.00
21817;BME280;13247;47.504;7.382;2023-04-03T05:31:51;97868.81;;;4.24;100.00
21817;BME280;13247;47.504;7.382;2023-04-03T05:34:36;97878.28;;;4.02;100.00
21817;BME280;13247;47.504;7.382;2023-04-03T05:37:21;97880.06;;;4.21;100.00
21817;BME280;13247;47.504;7.382;2023-04-03T05:40:06;97879.97;;;3.88;100.00
21817;BME280;13247;47.504;7.382;2023-04-03T05:42:51;97874.78;;;4.02;100.00
21817;BME280;13247;47.504;7.382;2023-04-03T05:45:37;97880.84;;;4.02;100.00
21817;BME280;13247;47.504;7.382;2023-04-03T05:48:22;97878.34;;;4.32;100.00
21817;BME280;13247;47.504;7.382;2023-04-03T05:51:09;97873.19;;;4.53;100.00
21817;BME280;13247;47.504;7.382;2023-04-03T05:56:55;97879.19;;;4.18;100.00
21817;BME280;13247;47.504;7.382;2023-04-03T05:59:40;97874.03;;;4.28;100.00
21817;BME280;13247;47.504;7.382;2023-04-03T06:02:25;97868.84;;;4.33;100.00
21817;BME280;13247;47.504;7.382;2023-04-03T06:05:11;97877.44;;;4.11;100.00
21817;BME280;13247;47.504;7.382;2023-04-03T06:07:56;97877.47;;;4.44;100.00
21817;BME280;13247;47.504;7.382;2023-04-03T06:10:42;97878.38;;;4.55;100.00
21817;BME280;13247;47.504;7.382;2023-04-03T06:13:26;97874.03;;;4.51;100.00
21817;BME280;13247;47.504;7.382;2023-04-03T06:16:15;97874.84;;;4.21;100.00
21817;BME280;13247;47.504;7.382;2023-04-03T06:19:01;97881.78;;;4.22;100.00
21817;BME280;13247;47.504;7.382;2023-04-03T06:21:47;97880.97;;;4.43;100.00
21817;BME280;13247;47.504;7.382;2023-04-03T06:24:32;97883.59;;;4.79;100.00
21817;BME280;13247;47.504;7.382;2023-04-03T06:27:16;97875.69;;;4.08;100.00
21817;BME280;13247;47.504;7.382;2023-04-03T06:30:01;97892.91;;;3.85;100.00
21817;BME280;13247;47.504;7.382;2023-04-03T06:32:46;97883.53;;;4.26;100.00
21817;BME280;13247;47.504;7.382;2023-04-03T06:35:31;97885.22;;;4.09;100.00
21817;BME280;13247;47.504;7.382;2023-04-03T06:38:16;97894.59;;;3.78;100.00
21817;BME280;13247;47.504;7.382;2023-04-03T06:41:00;97893.88;;;4.25;100.00
21817;BME280;13247;47.504;7.382;2023-04-03T06:43:45;97886.97;;;4.24;100.00
21817;BME280;13247;47.504;7.382;2023-04-03T06:46:30;97895.66;;;4.32;100.00
21817;BME280;13247;47.504;7.382;2023-04-03T06:49:14;97904.31;;;4.38;100.00
21817;BME280;13247;47.504;7.382;2023-04-03T06:52:01;97892.22;;;4.58;100.00
21817;BME280;13247;47.504;7.382;2023-04-03T06:54:46;97895.69;;;4.75;100.00
21817;BME280;13247;47.504;7.382;2023-04-03T06:57:31;97892.22;;;4.72;100.00
21817;BME280;13247;47.504;7.382;2023-04-03T07:00:17;97893.09;;;4.86;100.00
21817;BME280;13247;47.504;7.382;2023-04-03T07:03:01;97895.72;;;4.77;100.00
21817;BME280;13247;47.504;7.382;2023-04-03T07:05:47;97901.75;;;4.47;100.00
21817;BME280;13247;47.504;7.382;2023-04-03T07:08:32;97900.00;;;4.39;100.00
21817;BME280;13247;47.504;7.382;2023-04-03T07:11:17;97901.69;;;4.16;100.00
21817;BME280;13247;47.504;7.382;2023-04-03T07:14:02;97907.72;;;4.15;100.00
21817;BME280;13247;47.504;7.382;2023-04-03T07:16:47;97899.94;;;4.21;100.00
21817;BME280;13247;47.504;7.382;2023-04-03T07:19:32;97898.22;;;4.14;100.00
21817;BME280;13247;47.504;7.382;2023-04-03T07:22:17;97905.13;;;4.15;100.00
21817;BME280;13247;47.504;7.382;2023-04-03T07:25:01;97915.50;;;4.15;100.00
21817;BME280;13247;47.504;7.382;2023-04-03T07:27:46;97915.50;;;4.21;100.00
21817;BME280;13247;47.504;7.382;2023-04-03T07:30:31;97913.78;;;4.17;100.00
21817;BME280;13247;47.504;7.382;2023-04-03T07:33:20;97919.84;;;4.16;100.00
21817;BME280;13247;47.504;7.382;2023-04-03T07:36:06;97911.22;;;4.33;100.00
21817;BME280;13247;47.504;7.382;2023-04-03T07:38:54;97909.53;;;4.65;100.00
21817;BME280;13247;47.504;7.382;2023-04-03T07:41:39;97914.75;;;4.58;100.00
21817;BME280;13247;47.504;7.382;2023-04-03T07:44:24;97905.19;;;5.25;100.00
21817;BME280;13247;47.504;7.382;2023-04-03T07:47:09;97906.09;;;4.85;100.00
21817;BME280;13247;47.504;7.382;2023-04-03T07:49:54;97915.63;;;4.76;100.00
21817;BME280;13247;47.504;7.382;2023-04-03T07:52:38;97921.69;;;4.72;100.00
21817;BME280;13247;47.504;7.382;2023-04-03T07:55:24;97919.88;;;4.38;100.00
21817;BME280;13247;47.504;7.382;2023-04-03T07:58:10;97928.59;;;4.63;100.00
21817;BME280;13247;47.504;7.382;2023-04-03T08:00:55;97921.66;;;4.69;100.00
21817;BME280;13247;47.504;7.382;2023-04-03T08:03:40;97928.63;;;4.75;100.00
21817;BME280;13247;47.504;7.382;2023-04-03T08:06:25;97926.88;;;4.95;100.00
21817;BME280;13247;47.504;7.382;2023-04-03T08:09:10;97926.03;;;4.81;100.00
21817;BME280;13247;47.504;7.382;2023-04-03T08:11:54;97919.06;;;5.03;100.00
21817;BME280;13247;47.504;7.382;2023-04-03T08:14:40;97926.84;;;4.65;100.00
21817;BME280;13247;47.504;7.382;2023-04-03T08:17:25;97926.00;;;4.54;100.00
21817;BME280;13247;47.504;7.382;2023-04-03T08:20:10;97937.25;;;4.74;100.00
21817;BME280;13247;47.504;7.382;2023-04-03T08:22:55;97935.53;;;4.70;100.00
21817;BME280;13247;47.504;7.382;2023-04-03T08:25:41;97925.97;;;4.58;100.00
21817;BME280;13247;47.504;7.382;2023-04-03T08:28:26;97932.03;;;4.57;100.00
21817;BME280;13247;47.504;7.382;2023-04-03T08:31:14;97934.66;;;4.92;100.00
21817;BME280;13247;47.504;7.382;2023-04-03T08:33:59;97937.25;;;5.03;100.00
21817;BME280;13247;47.504;7.382;2023-04-03T08:36:44;97933.81;;;4.64;100.00
21817;BME280;13247;47.504;7.382;2023-04-03T08:39:29;97939.84;;;4.75;100.00
21817;BME280;13247;47.504;7.382;2023-04-03T08:45:44;97934.69;;;4.77;100.00
21817;BME280;13247;47.504;7.382;2023-04-03T08:48:42;97933.81;;;4.86;100.00
21817;BME280;13247;47.504;7.382;2023-04-03T08:51:28;97928.63;;;4.96;100.00
21817;BME280;13247;47.504;7.382;2023-04-03T08:54:24;97927.75;;;5.03;100.00
21817;BME280;13247;47.504;7.382;2023-04-03T08:57:12;97914.69;;;5.36;100.00
21817;BME280;13247;47.504;7.382;2023-04-03T09:00:00;97920.81;;;5.08;100.00
21817;BME280;13247;47.504;7.382;2023-04-03T09:03:04;97923.41;;;5.14;100.00
21817;BME280;13247;47.504;7.382;2023-04-03T09:06:32;97926.84;;;5.42;100.00
21817;BME280;13247;47.504;7.382;2023-04-03T09:09:37;97922.44;;;5.67;100.00
21817;BME280;13247;47.504;7.382;2023-04-03T09:12:41;97919.78;;;5.95;100.00
21817;BME280;13247;47.504;7.382;2023-04-03T09:15:42;97916.19;;;6.26;100.00
21817;BME280;13247;47.504;7.382;2023-04-03T09:18:35;97914.19;;;6.63;100.00
21817;BME280;13247;47.504;7.382;2023-04-03T09:21:32;97917.00;;;6.33;100.00
21817;BME280;13247;47.504;7.382;2023-04-03T09:24:21;97915.25;;;6.32;100.00
21817;BME280;13247;47.504;7.382;2023-04-03T09:27:10;97918.75;;;6.31;100.00
21817;BME280;13247;47.504;7.382;2023-04-03T09:29:57;97924.81;;;6.31;100.00
21817;BME280;13247;47.504;7.382;2023-04-03T09:32:44;97923.16;;;6.23;100.00
21817;BME280;13247;47.504;7.382;2023-04-03T09:35:31;97917.78;;;6.50;100.00
21817;BME280;13247;47.504;7.382;2023-04-03T09:38:20;97924.75;;;6.48;100.00
21817;BME280;13247;47.504;7.382;2023-04-03T09:41:11;97913.50;;;6.37;100.00
21817;BME280;13247;47.504;7.382;2023-04-03T09:43:58;97911.44;;;6.87;100.00
21817;BME280;13247;47.504;7.382;2023-04-03T09:46:43;97905.31;;;6.94;100.00
21817;BME280;13247;47.504;7.382;2023-04-03T09:49:27;97912.22;;;6.97;100.00
21817;BME280;13247;47.504;7.382;2023-04-03T09:52:22;97914.72;;;7.10;100.00
21817;BME280;13247;47.504;7.382;2023-04-03T09:58:04;97914.44;;;7.41;100.00
21817;BME280;13247;47.504;7.382;2023-04-03T10:00:55;97903.78;;;7.63;100.00
21817;BME280;13247;47.504;7.382;2023-04-03T10:03:40;97904.38;;;6.97;100.00
21817;BME280;13247;47.504;7.382;2023-04-03T10:06:32;97910.44;;;7.02;100.00
21817;BME280;13247;47.504;7.382;2023-04-03T10:09:26;97906.75;;;7.26;100.00
21817;BME280;13247;47.504;7.382;2023-04-03T10:12:12;97901.13;;;7.68;100.00
21817;BME280;13247;47.504;7.382;2023-04-03T10:15:01;97901.13;;;7.68;100.00
21817;BME280;13247;47.504;7.382;2023-04-03T10:18:02;97903.78;;;7.63;100.00
21817;BME280;13247;47.504;7.382;2023-04-03T10:20:49;97901.16;;;7.66;100.00
21817;BME280;13247;47.504;7.382;2023-04-03T10:23:51;97902.25;;;7.43;100.00
21817;BME280;13247;47.504;7.382;2023-04-03T10:36:17;97899.84;;;7.22;100.00
21817;BME280;13247;47.504;7.382;2023-04-03T10:42:05;97908.00;;;6.84;100.00
21817;BME280;13247;47.504;7.382;2023-04-03T10:45:04;97903.63;;;6.86;100.00
21817;BME280;13247;47.504;7.382;2023-04-03T10:51:15;97903.28;;;7.28;100.00
21817;BME280;13247;47.504;7.382;2023-04-03T10:54:25;97904.28;;;7.13;100.00
21817;BME280;13247;47.504;7.382;2023-04-03T10:57:11;97909.63;;;6.98;100.00
21817;BME280;13247;47.504;7.382;2023-04-03T11:00:06;97908.94;;;6.75;100.00
21817;BME280;13247;47.504;7.382;2023-04-03T11:03:00;97903.38;;;7.18;100.00
21817;BME280;13247;47.504;7.382;2023-04-03T11:05:49;97904.63;;;6.71;100.00
21817;BME280;13247;47.504;7.382;2023-04-03T11:08:58;97900.38;;;6.51;100.00
21817;BME280;13247;47.504;7.382;2023-04-03T11:11:46;97905.50;;;6.67;100.00
21817;BME280;13247;47.504;7.382;2023-04-03T11:14:34;97890.69;;;6.72;100.00
21817;BME280;13247;47.504;7.382;2023-04-03T11:20:20;97885.41;;;6.83;100.00
21817;BME280;13247;47.504;7.382;2023-04-03T11:23:24;97880.81;;;7.10;100.00
21817;BME280;13247;47.504;7.382;2023-04-03T11:26:13;97880.16;;;6.84;100.00
21817;BME280;13247;47.504;7.382;2023-04-03T11:29:03;97880.13;;;6.90;100.00
21817;BME280;13247;47.504;7.382;2023-04-03T11:34:54;97861.59;;;7.22;88.93
21817;BME280;13247;47.504;7.382;2023-04-03T11:37:51;97864.34;;;7.05;93.29
21817;BME280;13247;47.504;7.382;2023-04-03T11:40:38;97858.31;;;7.79;94.25
21817;BME280;13247;47.504;7.382;2023-04-03T11:43:26;97863.56;;;7.78;92.61
21817;BME280;13247;47.504;7.382;2023-04-03T11:46:11;97860.03;;;7.82;89.89
21817;BME280;13247;47.504;7.382;2023-04-03T11:48:55;97857.91;;;7.40;88.82
21817;BME280;13247;47.504;7.382;2023-04-03T11:51:41;97860.69;;;7.25;97.52
21817;BME280;13247;47.504;7.382;2023-04-03T11:54:56;97859.63;;;7.42;100.00
21817;BME280;13247;47.504;7.382;2023-04-03T12:03:56;97850.72;;;7.61;98.19
21817;BME280;13247;47.504;7.382;2023-04-03T12:12:39;97850.06;;;7.43;100.00
21817;BME280;13247;47.504;7.382;2023-04-03T12:15:48;97846.63;;;7.38;98.84
21817;BME280;13247;47.504;7.382;2023-04-03T12:24:35;97845.44;;;7.67;100.00
21817;BME280;13247;47.504;7.382;2023-04-03T12:27:34;97844.66;;;7.59;100.00
21817;BME280;13247;47.504;7.382;2023-04-03T12:30:26;97847.41;;;7.46;100.00
21817;BME280;13247;47.504;7.382;2023-04-03T12:36:34;97845.84;;;7.33;100.00
21817;BME280;13247;47.504;7.382;2023-04-03T12:39:33;97834.31;;;7.52;99.10
21817;BME280;13247;47.504;7.382;2023-04-03T12:43:09;97830.84;;;7.51;98.44
21817;BME280;13247;47.504;7.382;2023-04-03T12:51:40;97828.81;;;7.74;93.32
21817;BME280;13247;47.504;7.382;2023-04-03T12:54:32;97829.13;;;8.16;98.46
21817;BME280;13247;47.504;7.382;2023-04-03T12:57:22;97819.13;;;7.84;91.68
21817;BME280;13247;47.504;7.382;2023-04-03T13:00:33;97823.56;;;7.76;84.15
21817;BME280;13247;47.504;7.382;2023-04-03T13:03:25;97822.69;;;8.42;82.05
21817;BME280;13247;47.504;7.382;2023-04-03T13:09:38;97811.53;;;8.31;74.16
21817;BME280;13247;47.504;7.382;2023-04-03T13:12:23;97811.41;;;8.40;73.48
21817;BME280;13247;47.504;7.382;2023-04-03T13:15:23;97808.59;;;8.52;68.30
21817;BME280;13247;47.504;7.382;2023-04-03T13:21:21;97800.44;;;8.72;70.22
21817;BME280;13247;47.504;7.382;2023-04-03T13:24:09;97813.91;;;8.46;71.18
21817;BME280;13247;47.504;7.382;2023-04-03T13:26:54;97807.25;;;8.26;71.03
21817;BME280;13247;47.504;7.382;2023-04-03T13:29:40;97800.22;;;8.31;75.24
21817;BME280;13247;47.504;7.382;2023-04-03T13:32:27;97804.75;;;8.15;75.13
21817;BME280;13247;47.504;7.382;2023-04-03T13:41:05;97807.44;;;8.68;76.40
21817;BME280;13247;47.504;7.382;2023-04-03T13:44:35;97804.72;;;8.75;72.11
21817;BME280;13247;47.504;7.382;2023-04-03T13:47:23;97796.81;;;8.79;74.53
21817;BME280;13247;47.504;7.382;2023-04-03T13:53:11;97795.06;;;8.80;68.81
21817;BME280;13247;47.504;7.382;2023-04-03T14:04:51;97787.00;;;8.92;67.66
21817;BME280;13247;47.504;7.382;2023-04-03T14:07:37;97788.97;;;8.81;66.16
21817;BME280;13247;47.504;7.382;2023-04-03T14:10:22;97791.19;;;9.02;67.97
21817;BME280;13247;47.504;7.382;2023-04-03T14:13:09;97783.56;;;8.90;64.76
21817;BME280;13247;47.504;7.382;2023-04-03T14:15:54;97780.69;;;9.03;67.17
21817;BME280;13247;47.504;7.382;2023-04-03T14:18:38;97780.00;;;8.95;64.56
21817;BME280;13247;47.504;7.382;2023-04-03T14:21:23;97774.22;;;8.75;66.78
21817;BME280;13247;47.504;7.382;2023-04-03T14:24:08;97774.88;;;8.88;67.77
21817;BME280;13247;47.504;7.382;2023-04-03T14:26:54;97772.78;;;9.06;64.72
21817;BME280;13247;47.504;7.382;2023-04-03T14:29:39;97760.66;;;9.04;65.64
21817;BME280;13247;47.504;7.382;2023-04-03T14:32:25;97762.78;;;9.28;64.52
21817;BME280;13247;47.504;7.382;2023-04-03T14:35:10;97766.31;;;9.27;63.73
21817;BME280;13247;47.504;7.382;2023-04-03T14:37:55;97764.13;;;9.03;61.21
21817;BME280;13247;47.504;7.382;2023-04-03T14:40:40;97754.66;;;8.97;60.96
21817;BME280;13247;47.504;7.382;2023-04-03T14:43:25;97757.88;;;9.11;62.86
21817;BME280;13247;47.504;7.382;2023-04-03T14:46:14;97757.00;;;9.11;60.44
21817;BME280;13247;47.504;7.382;2023-04-03T14:49:00;97763.06;;;9.13;59.62
21817;BME280;13247;47.504;7.382;2023-04-03T14:51:45;97751.22;;;9.38;60.71
21817;BME280;13247;47.504;7.382;2023-04-03T14:54:29;97759.28;;;9.27;60.59
21817;BME280;13247;47.504;7.382;2023-04-03T14:57:16;97763.22;;;9.05;60.74
21817;BME280;13247;47.504;7.382;2023-04-03T15:00:01;97752.63;;;9.11;61.95
21817;BME280;13247;47.504;7.382;2023-04-03T15:02:47;97752.28;;;8.84;60.23
21817;BME280;13247;47.504;7.382;2023-04-03T15:05:32;97754.88;;;8.85;63.47
21817;BME280;13247;47.504;7.382;2023-04-03T15:08:25;97757.63;;;8.78;61.31
21817;BME280;13247;47.504;7.382;2023-04-03T15:11:11;97753.91;;;8.91;62.78
21817;BME280;13247;47.504;7.382;2023-04-03T15:13:55;97759.13;;;8.91;60.84
21817;BME280;13247;47.504;7.382;2023-04-03T15:16:40;97759.06;;;8.94;59.67
21817;BME280;13247;47.504;7.382;2023-04-03T15:19:25;97756.78;;;8.76;60.78
21817;BME280;13247;47.504;7.382;2023-04-03T15:22:16;97753.16;;;8.84;55.74
21817;BME280;13247;47.504;7.382;2023-04-03T15:25:01;97754.19;;;8.76;59.05
21817;BME280;13247;47.504;7.382;2023-04-03T15:27:46;97766.19;;;8.86;56.28
21817;BME280;13247;47.504;7.382;2023-04-03T15:30:30;97756.91;;;8.69;57.77
21817;BME280;13247;47.504;7.382;2023-04-03T15:33:15;97753.91;;;8.89;54.98
21817;BME280;13247;47.504;7.382;2023-04-03T15:36:00;97758.34;;;8.86;57.32
21817;BME280;13247;47.504;7.382;2023-04-03T15:38:45;97757.56;;;8.82;56.99
21817;BME280;13247;47.504;7.382;2023-04-03T15:41:30;97750.50;;;8.86;58.37
21817;BME280;13247;47.504;7.382;2023-04-03T15:44:14;97751.34;;;8.88;57.68
21817;BME280;13247;47.504;7.382;2023-04-03T15:47:02;97757.88;;;8.62;57.79
21817;BME280;13247;47.504;7.382;2023-04-03T15:49:47;97763.72;;;8.77;57.31
21817;BME280;13247;47.504;7.382;2023-04-03T15:52:32;97757.16;;;8.54;59.39
21817;BME280;13247;47.504;7.382;2023-04-03T15:55:17;97755.16;;;8.68;59.50
21817;BME280;13247;47.504;7.382;2023-04-03T15:58:02;97754.75;;;8.42;58.97
21817;BME280;13247;47.504;7.382;2023-04-03T16:00:47;97756.09;;;8.64;59.20
21817;BME280;13247;47.504;7.382;2023-04-03T16:03:31;97755.34;;;8.59;59.41
21817;BME280;13247;47.504;7.382;2023-04-03T16:06:17;97749.41;;;8.48;59.78
21817;BME280;13247;47.504;7.382;2023-04-03T16:09:04;97746.63;;;8.57;57.57
21817;BME280;13247;47.504;7.382;2023-04-03T16:11:48;97761.84;;;8.33;57.05
21817;BME280;13247;47.504;7.382;2023-04-03T16:14:33;97756.47;;;8.43;58.70
21817;BME280;13247;47.504;7.382;2023-04-03T16:17:18;97756.66;;;8.31;58.09